Time;durP1;ratioP1;P1;durP2;ratioP2;P2;SDS_P1;SDS_P2;PMS_P1;PMS_P2;Temp;Humidity;BMP_temperature;BMP_pressure;BME280_temperature;BME280_humidity;BME280_pressure;Samples;Min_cycle;Max_cycle;Signal;HPM_P1;HPM_P2
2022/05/16 00:00:29;;;;;;;5.32;1.25;;;;;;;;;;5048584;28;20572;-54
2022/05/16 00:02:56;;;;;;;12.45;1.80;;;;;;;;;;5037646;28;20029;-54
2022/05/16 00:05:23;;;;;;;5.50;2.72;;;;;;;;;;5049317;28;20028;-52
2022/05/16 00:07:49;;;;;;;4.15;1.63;;;;;;;;;;5050268;28;20025;-54
2022/05/16 00:10:15;;;;;;;8.32;1.50;;;;;;;;;;5037958;28;20052;-50
2022/05/16 00:12:41;;;;;;;2.85;1.55;;;;;;;;;;5049755;28;20032;-53
2022/05/16 00:15:08;;;;;;;3.97;1.30;;;;;;;;;;5044100;28;20392;-54
2022/05/16 00:17:34;;;;;;;8.07;1.77;;;;;;;;;;5051898;28;20033;-53
2022/05/16 00:20:00;;;;;;;5.45;1.65;;;;;;;;;;5048288;28;20472;-51
2022/05/16 00:22:27;;;;;;;3.95;1.67;;;;;;;;;;5050134;28;20112;-50
2022/05/16 00:24:53;;;;;;;6.93;1.60;;;;;;;;;;5048412;28;20399;-51
2022/05/16 00:27:19;;;;;;;4.82;1.83;;;;;;;;;;5035945;28;20025;-52
2022/05/16 00:29:45;;;;;;;4.90;1.73;;;;;;;;;;5048274;28;20042;-50
2022/05/16 00:32:13;;;;;;;5.13;1.70;;;;;;;;;;5046489;28;20537;-54
2022/05/16 00:34:39;;;;;;;6.65;2.20;;;;;;;;;;5051255;28;20033;-54
2022/05/16 00:37:06;;;;;;;4.20;1.70;;;;;;;;;;5045111;28;20599;-54
2022/05/16 00:39:32;;;;;;;5.68;1.60;;;;;;;;;;5042285;28;20037;-55
2022/05/16 00:41:59;;;;;;;6.40;2.08;;;;;;;;;;5044877;28;20025;-53
2022/05/16 00:44:25;;;;;;;3.13;1.65;;;;;;;;;;5045704;28;20034;-52
2022/05/16 00:46:51;;;;;;;6.30;1.98;;;;;;;;;;5036316;28;20396;-54
2022/05/16 00:49:19;;;;;;;6.25;1.80;;;;;;;;;;5046236;28;20023;-54
2022/05/16 00:51:48;;;;;;;5.60;1.67;;;;;;;;;;5049369;28;20489;-54
2022/05/16 00:54:23;;;;;;;2.53;1.52;;;;;;;;;;5046740;28;20468;-55
2022/05/16 00:56:51;;;;;;;4.07;1.67;;;;;;;;;;5044068;28;20025;-54
2022/05/16 00:59:17;;;;;;;3.80;1.65;;;;;;;;;;5041693;28;20082;-55
2022/05/16 01:07:13;;;;;;;7.00;2.63;;;;;;;;;;5047797;28;20032;-53
2022/05/16 01:09:39;;;;;;;6.40;2.60;;;;;;;;;;5049523;28;20096;-53
2022/05/16 01:12:05;;;;;;;6.55;2.13;;;;;;;;;;5047876;28;20025;-51
2022/05/16 01:14:42;;;;;;;5.43;2.55;;;;;;;;;;5040142;28;20028;-54
2022/05/16 01:17:08;;;;;;;5.07;2.53;;;;;;;;;;5041408;28;20033;-54
2022/05/16 01:19:34;;;;;;;9.30;2.70;;;;;;;;;;5049013;28;20021;-52
2022/05/16 01:22:04;;;;;;;9.70;2.70;;;;;;;;;;5045197;28;20036;-52
2022/05/16 01:24:30;;;;;;;7.20;2.70;;;;;;;;;;5051396;28;20136;-54
2022/05/16 01:26:56;;;;;;;7.00;3.60;;;;;;;;;;5046117;28;20826;-52
2022/05/16 01:29:22;;;;;;;6.55;3.30;;;;;;;;;;5050198;28;20013;-53
2022/05/16 01:31:48;;;;;;;5.72;3.03;;;;;;;;;;5046501;28;20025;-53
2022/05/16 01:34:14;;;;;;;3.90;2.45;;;;;;;;;;5044338;28;20052;-55
2022/05/16 01:36:40;;;;;;;6.63;3.38;;;;;;;;;;5034588;28;20489;-54
2022/05/16 01:39:06;;;;;;;5.13;2.65;;;;;;;;;;5048874;28;20492;-53
2022/05/16 01:41:32;;;;;;;6.78;3.08;;;;;;;;;;5045747;28;20110;-50
2022/05/16 01:44:00;;;;;;;8.05;3.45;;;;;;;;;;5048158;28;20032;-53
2022/05/16 01:46:32;;;;;;;7.60;3.10;;;;;;;;;;5044438;28;20021;-53
2022/05/16 01:48:58;;;;;;;7.65;2.60;;;;;;;;;;5044530;28;20052;-53
2022/05/16 01:51:24;;;;;;;5.35;2.67;;;;;;;;;;5043428;28;20481;-51
2022/05/16 01:53:50;;;;;;;6.43;2.53;;;;;;;;;;5034438;28;20060;-53
2022/05/16 01:56:16;;;;;;;9.85;2.60;;;;;;;;;;5047426;28;20116;-52
2022/05/16 01:58:42;;;;;;;8.13;2.90;;;;;;;;;;5044322;28;20037;-53
2022/05/16 02:01:09;;;;;;;5.75;2.53;;;;;;;;;;5045798;28;20029;-54
2022/05/16 02:03:40;;;;;;;6.72;2.92;;;;;;;;;;5046846;28;20028;-54
2022/05/16 02:06:06;;;;;;;9.35;3.28;;;;;;;;;;5049480;28;20121;-54
2022/05/16 02:08:32;;;;;;;7.68;2.70;;;;;;;;;;5046193;28;20052;-52
2022/05/16 02:10:58;;;;;;;7.18;3.28;;;;;;;;;;5043992;28;20026;-53
2022/05/16 02:13:24;;;;;;;7.15;2.83;;;;;;;;;;5049406;28;20072;-51
2022/05/16 02:15:50;;;;;;;9.32;2.80;;;;;;;;;;5046563;28;20025;-53
2022/05/16 02:18:17;;;;;;;6.32;2.80;;;;;;;;;;5046182;28;20037;-54
2022/05/16 02:20:43;;;;;;;9.23;3.15;;;;;;;;;;5047049;28;20411;-53
2022/05/16 02:25:56;;;;;;;7.10;2.40;;;;;;;;;;5046537;28;20036;-54
2022/05/16 02:28:22;;;;;;;6.00;2.65;;;;;;;;;;5038282;28;20429;-54
2022/05/16 02:30:48;;;;;;;7.82;2.45;;;;;;;;;;5032185;28;20033;-51
2022/05/16 02:33:15;;;;;;;5.70;2.83;;;;;;;;;;5040687;28;20049;-54
2022/05/16 02:35:43;;;;;;;4.45;2.03;;;;;;;;;;5044720;28;20500;-52
2022/05/16 02:38:10;;;;;;;5.05;2.10;;;;;;;;;;5039911;28;20106;-53
2022/05/16 02:40:36;;;;;;;3.85;2.00;;;;;;;;;;5045686;28;20362;-53
2022/05/16 02:43:02;;;;;;;6.05;2.28;;;;;;;;;;5039386;28;20036;-53
2022/05/16 02:45:29;;;;;;;4.55;2.05;;;;;;;;;;5040470;28;20124;-54
2022/05/16 02:47:55;;;;;;;6.32;2.55;;;;;;;;;;5034931;28;20028;-53
2022/05/16 02:50:23;;;;;;;6.43;2.63;;;;;;;;;;5045454;28;20025;-54
2022/05/16 02:52:49;;;;;;;4.15;1.90;;;;;;;;;;5049069;28;20053;-53
2022/05/16 02:55:15;;;;;;;6.68;2.47;;;;;;;;;;5040479;28;20113;-54
2022/05/16 02:57:41;;;;;;;5.60;2.63;;;;;;;;;;5043587;28;20104;-54
2022/05/16 03:00:09;;;;;;;3.97;1.90;;;;;;;;;;5048702;28;20424;-54
2022/05/16 03:02:35;;;;;;;9.90;2.67;;;;;;;;;;5045571;28;20029;-53
2022/05/16 03:05:01;;;;;;;7.18;2.35;;;;;;;;;;5036656;28;20393;-52
2022/05/16 03:07:27;;;;;;;4.13;2.00;;;;;;;;;;5046468;28;20032;-54
2022/05/16 03:09:53;;;;;;;8.15;2.67;;;;;;;;;;5042958;28;20056;-53
2022/05/16 03:12:19;;;;;;;6.05;1.75;;;;;;;;;;5041853;28;20025;-50
2022/05/16 03:14:45;;;;;;;3.75;1.80;;;;;;;;;;5041267;28;20033;-52
2022/05/16 03:17:11;;;;;;;5.45;1.63;;;;;;;;;;5047968;28;20033;-53
2022/05/16 03:19:37;;;;;;;11.40;2.30;;;;;;;;;;5039605;28;20045;-51
2022/05/16 03:22:04;;;;;;;5.18;2.00;;;;;;;;;;5043246;28;20082;-52
2022/05/16 03:24:30;;;;;;;5.40;1.60;;;;;;;;;;5046848;28;20071;-53
2022/05/16 03:26:55;;;;;;;8.05;2.50;;;;;;;;;;5048186;28;20026;-53
2022/05/16 03:29:21;;;;;;;4.53;2.00;;;;;;;;;;5050626;28;20037;-51
2022/05/16 03:31:47;;;;;;;11.23;2.92;;;;;;;;;;5041332;28;20029;-55
2022/05/16 03:34:13;;;;;;;4.22;2.17;;;;;;;;;;5042549;28;20112;-54
2022/05/16 03:36:39;;;;;;;5.95;2.42;;;;;;;;;;5044396;28;20446;-54
2022/05/16 03:41:51;;;;;;;4.30;2.15;;;;;;;;;;5035586;28;20040;-54
2022/05/16 03:44:17;;;;;;;5.10;1.77;;;;;;;;;;5053330;28;20044;-54
2022/05/16 03:46:43;;;;;;;4.32;1.70;;;;;;;;;;5046082;28;20025;-56
2022/05/16 03:49:10;;;;;;;5.03;2.00;;;;;;;;;;5044145;28;20017;-55
2022/05/16 03:51:36;;;;;;;4.82;1.80;;;;;;;;;;5048634;28;20028;-55
2022/05/16 03:54:01;;;;;;;5.80;2.10;;;;;;;;;;5042775;28;20488;-53
2022/05/16 03:56:28;;;;;;;5.28;2.08;;;;;;;;;;5049776;28;20041;-55
2022/05/16 03:58:55;;;;;;;4.78;1.90;;;;;;;;;;5048408;28;20033;-55
2022/05/16 04:01:21;;;;;;;6.13;2.03;;;;;;;;;;5047983;28;20029;-53
2022/05/16 04:03:48;;;;;;;4.43;2.50;;;;;;;;;;5037630;28;20040;-52
2022/05/16 04:06:14;;;;;;;6.38;2.30;;;;;;;;;;5042830;28;20018;-54
2022/05/16 04:08:40;;;;;;;5.50;1.92;;;;;;;;;;5052144;28;20462;-53
2022/05/16 04:11:07;;;;;;;4.82;1.63;;;;;;;;;;5040881;28;20029;-53
2022/05/16 04:13:33;;;;;;;3.72;1.88;;;;;;;;;;5049891;28;20488;-51
2022/05/16 04:15:59;;;;;;;5.45;2.28;;;;;;;;;;5053269;28;20032;-54
2022/05/16 04:18:25;;;;;;;10.65;2.15;;;;;;;;;;5049166;28;20036;-53
2022/05/16 04:20:51;;;;;;;6.50;1.88;;;;;;;;;;5051016;28;20033;-53
2022/05/16 04:23:18;;;;;;;5.55;1.80;;;;;;;;;;5045975;28;20396;-53
2022/05/16 04:25:44;;;;;;;5.32;1.98;;;;;;;;;;5049025;28;20033;-54
2022/05/16 04:28:10;;;;;;;4.95;2.20;;;;;;;;;;5042781;28;20021;-52
2022/05/16 04:30:37;;;;;;;8.63;2.72;;;;;;;;;;5044925;28;20067;-55
2022/05/16 04:33:03;;;;;;;4.75;2.20;;;;;;;;;;5049508;28;20032;-53
2022/05/16 04:35:29;;;;;;;6.47;2.30;;;;;;;;;;5040268;28;20092;-54
2022/05/16 04:37:55;;;;;;;6.20;2.55;;;;;;;;;;5050252;28;20043;-54
2022/05/16 04:40:22;;;;;;;3.05;1.85;;;;;;;;;;5039650;28;20033;-54
2022/05/16 04:42:48;;;;;;;5.03;2.05;;;;;;;;;;5050183;28;20033;-54
2022/05/16 04:45:22;;;;;;;5.00;1.90;;;;;;;;;;5046236;28;20472;-52
2022/05/16 04:47:50;;;;;;;7.47;2.20;;;;;;;;;;5049339;28;20036;-55
2022/05/16 04:50:17;;;;;;;5.97;2.00;;;;;;;;;;5048458;28;20028;-54
2022/05/16 04:52:43;;;;;;;4.50;1.98;;;;;;;;;;5052659;28;20298;-54
2022/05/16 04:55:10;;;;;;;8.68;2.35;;;;;;;;;;5038685;28;20057;-55
2022/05/16 04:57:36;;;;;;;5.28;1.80;;;;;;;;;;5045492;28;20104;-54
2022/05/16 05:00:04;;;;;;;5.43;2.17;;;;;;;;;;5047234;28;20033;-55
2022/05/16 05:02:30;;;;;;;6.90;2.45;;;;;;;;;;5054553;28;20017;-54
2022/05/16 05:04:56;;;;;;;4.53;2.00;;;;;;;;;;5047280;28;20481;-53
2022/05/16 05:07:23;;;;;;;8.30;2.30;;;;;;;;;;5048936;28;20071;-54
2022/05/16 05:15:19;;;;;;;5.47;1.60;;;;;;;;;;5044954;28;20384;-55
2022/05/16 05:17:45;;;;;;;6.53;2.45;;;;;;;;;;5039678;28;20037;-54
2022/05/16 05:20:14;;;;;;;5.40;1.95;;;;;;;;;;5046931;28;20033;-54
2022/05/16 05:22:41;;;;;;;6.68;2.28;;;;;;;;;;5042737;28;20040;-53
2022/05/16 05:25:09;;;;;;;6.85;1.73;;;;;;;;;;5045679;28;20060;-53
2022/05/16 05:27:34;;;;;;;8.27;2.63;;;;;;;;;;5047476;28;20029;-55
2022/05/16 05:30:01;;;;;;;5.32;2.03;;;;;;;;;;5043701;28;20037;-53
2022/05/16 05:32:27;;;;;;;6.60;2.10;;;;;;;;;;5042666;28;20463;-53
2022/05/16 05:34:53;;;;;;;4.32;1.73;;;;;;;;;;5038097;28;20415;-55
2022/05/16 05:37:18;;;;;;;4.95;1.77;;;;;;;;;;5051227;28;20083;-55
2022/05/16 05:39:44;;;;;;;3.75;1.80;;;;;;;;;;5049760;28;20044;-54
2022/05/16 05:42:11;;;;;;;5.95;2.13;;;;;;;;;;5052553;28;20036;-54
2022/05/16 05:44:36;;;;;;;6.45;1.92;;;;;;;;;;5044715;28;20410;-53
2022/05/16 05:47:03;;;;;;;8.85;2.17;;;;;;;;;;5042585;28;20078;-54
2022/05/16 05:49:28;;;;;;;5.95;2.40;;;;;;;;;;5045672;28;20047;-55
2022/05/16 05:51:56;;;;;;;5.57;1.90;;;;;;;;;;5035088;28;20049;-54
2022/05/16 05:54:22;;;;;;;6.93;2.03;;;;;;;;;;5041044;28;20048;-51
2022/05/16 05:56:48;;;;;;;5.00;1.92;;;;;;;;;;5042543;28;20030;-54
2022/05/16 05:59:14;;;;;;;5.00;2.10;;;;;;;;;;5053059;28;20555;-55
2022/05/16 06:01:40;;;;;;;4.88;1.85;;;;;;;;;;5041919;28;20044;-53
2022/05/16 06:04:06;;;;;;;2.58;1.40;;;;;;;;;;5046648;28;20029;-55
2022/05/16 06:06:32;;;;;;;5.65;1.83;;;;;;;;;;5047872;28;20029;-54
2022/05/16 06:08:58;;;;;;;5.22;1.60;;;;;;;;;;5042863;28;20032;-55
2022/05/16 06:11:28;;;;;;;7.13;1.75;;;;;;;;;;5040870;28;20025;-55
2022/05/16 06:13:54;;;;;;;2.85;1.75;;;;;;;;;;5039024;28;20033;-52
2022/05/16 06:16:20;;;;;;;7.38;2.05;;;;;;;;;;5041886;28;20497;-53
2022/05/16 06:18:46;;;;;;;5.60;1.50;;;;;;;;;;5044482;28;20150;-52
2022/05/16 06:21:12;;;;;;;6.82;1.55;;;;;;;;;;5038700;28;20037;-55
2022/05/16 06:23:38;;;;;;;3.50;1.60;;;;;;;;;;5041794;28;20035;-53
2022/05/16 06:26:05;;;;;;;6.10;2.13;;;;;;;;;;5034692;28;20382;-53
2022/05/16 06:28:37;;;;;;;5.35;1.73;;;;;;;;;;5042301;28;20025;-54
2022/05/16 06:31:03;;;;;;;5.05;1.92;;;;;;;;;;5039869;28;20106;-54
2022/05/16 06:33:29;;;;;;;5.93;1.63;;;;;;;;;;5049738;28;20033;-54
2022/05/16 06:35:56;;;;;;;3.95;1.33;;;;;;;;;;5042924;28;20654;-53
2022/05/16 06:38:25;;;;;;;4.45;2.05;;;;;;;;;;5040673;28;20036;-55
2022/05/16 06:40:51;;;;;;;3.42;1.50;;;;;;;;;;5044287;28;20041;-54
2022/05/16 06:43:18;;;;;;;5.32;1.67;;;;;;;;;;5046505;28;20039;-54
2022/05/16 06:45:44;;;;;;;4.40;1.80;;;;;;;;;;5046398;28;20725;-52
2022/05/16 06:48:10;;;;;;;7.07;1.45;;;;;;;;;;5041249;28;20469;-54
2022/05/16 06:50:37;;;;;;;4.80;1.85;;;;;;;;;;5056641;28;20029;-54
2022/05/16 06:53:03;;;;;;;3.80;1.60;;;;;;;;;;5044047;28;20068;-53
2022/05/16 06:55:30;;;;;;;5.75;1.42;;;;;;;;;;5045374;28;20029;-53
2022/05/16 06:57:56;;;;;;;6.47;2.00;;;;;;;;;;5039396;28;20033;-53
2022/05/16 07:00:22;;;;;;;5.70;2.08;;;;;;;;;;5052740;28;20439;-54
2022/05/16 07:02:48;;;;;;;6.30;2.22;;;;;;;;;;5042258;28;20061;-54
2022/05/16 07:05:15;;;;;;;4.55;1.27;;;;;;;;;;5039802;28;20094;-55
2022/05/16 07:07:41;;;;;;;5.32;2.15;;;;;;;;;;5041988;28;20029;-54
2022/05/16 07:10:07;;;;;;;5.85;1.83;;;;;;;;;;5043873;28;20400;-53
2022/05/16 07:12:33;;;;;;;9.07;1.73;;;;;;;;;;5042603;28;20527;-52
2022/05/16 07:14:59;;;;;;;3.47;1.55;;;;;;;;;;5046875;28;20018;-52
2022/05/16 07:17:25;;;;;;;3.95;1.73;;;;;;;;;;5040667;28;20135;-52
2022/05/16 07:19:51;;;;;;;7.40;2.03;;;;;;;;;;5042289;28;20035;-53
2022/05/16 07:22:19;;;;;;;4.32;1.35;;;;;;;;;;5043876;28;20488;-54
2022/05/16 07:24:45;;;;;;;4.95;1.48;;;;;;;;;;5036090;28;20053;-54
2022/05/16 07:29:56;;;;;;;3.88;1.50;;;;;;;;;;5051439;28;20072;-53
2022/05/16 07:32:22;;;;;;;6.65;1.60;;;;;;;;;;5048085;28;20395;-56
2022/05/16 07:34:48;;;;;;;5.10;1.35;;;;;;;;;;5041118;28;20035;-54
2022/05/16 07:37:14;;;;;;;4.35;1.60;;;;;;;;;;5041881;28;20033;-55
2022/05/16 07:39:41;;;;;;;4.80;1.45;;;;;;;;;;5039014;28;20537;-53
2022/05/16 07:42:08;;;;;;;10.02;1.77;;;;;;;;;;5044262;28;20051;-54
2022/05/16 07:44:35;;;;;;;5.80;1.90;;;;;;;;;;5040167;28;20044;-52
2022/05/16 07:47:01;;;;;;;4.82;1.55;;;;;;;;;;5037497;28;20030;-53
2022/05/16 07:49:27;;;;;;;4.70;1.65;;;;;;;;;;5038863;28;20138;-54
2022/05/16 07:51:53;;;;;;;5.43;1.45;;;;;;;;;;5040911;28;20374;-53
2022/05/16 07:54:19;;;;;;;5.82;1.42;;;;;;;;;;5045641;28;20036;-53
2022/05/16 07:56:45;;;;;;;6.47;1.92;;;;;;;;;;5033675;28;20072;-54
2022/05/16 07:59:12;;;;;;;6.25;1.73;;;;;;;;;;5036909;28;20025;-53
2022/05/16 08:01:38;;;;;;;3.95;1.55;;;;;;;;;;5042737;28;20036;-54
2022/05/16 08:04:06;;;;;;;7.13;1.73;;;;;;;;;;5035867;28;20044;-54
2022/05/16 08:06:32;;;;;;;6.38;1.67;;;;;;;;;;5046743;28;20021;-54
2022/05/16 08:11:43;;;;;;;3.13;1.35;;;;;;;;;;5037333;28;20036;-53
2022/05/16 08:14:08;;;;;;;8.57;1.55;;;;;;;;;;5051627;28;20025;-53
2022/05/16 08:16:34;;;;;;;4.07;1.98;;;;;;;;;;5045290;28;20033;-54
2022/05/16 08:19:00;;;;;;;6.15;1.83;;;;;;;;;;5038379;28;20489;-55
2022/05/16 08:21:26;;;;;;;5.50;1.40;;;;;;;;;;5047452;28;20029;-53
2022/05/16 08:23:53;;;;;;;2.35;1.33;;;;;;;;;;5044418;28;20048;-55
2022/05/16 08:26:18;;;;;;;7.22;1.50;;;;;;;;;;5037489;28;20025;-56
2022/05/16 08:28:44;;;;;;;6.80;1.55;;;;;;;;;;5041045;28;20079;-51
2022/05/16 08:31:10;;;;;;;2.80;1.13;;;;;;;;;;5042968;28;20101;-52
2022/05/16 08:33:38;;;;;;;4.10;1.35;;;;;;;;;;5035154;28;20033;-54
2022/05/16 08:41:40;;;;;;;2.50;1.00;;;;;;;;;;5048431;28;20028;-55
2022/05/16 08:44:25;;;;;;;6.50;1.93;;;;;;;;;;5035144;28;20489;-54
2022/05/16 08:47:00;;;;;;;7.28;1.48;;;;;;;;;;5039890;28;20025;-53
2022/05/16 08:49:35;;;;;;;5.28;1.67;;;;;;;;;;5051006;28;20033;-51
2022/05/16 08:52:21;;;;;;;3.45;1.17;;;;;;;;;;5050648;28;20144;-52
2022/05/16 08:54:51;;;;;;;2.28;1.15;;;;;;;;;;5034135;28;20045;-56
2022/05/16 08:57:28;;;;;;;6.22;1.20;;;;;;;;;;5036365;28;20024;-55
2022/05/16 09:00:01;;;;;;;3.08;0.90;;;;;;;;;;5037002;28;20032;-54
2022/05/16 09:02:29;;;;;;;2.75;1.10;;;;;;;;;;5047082;28;20033;-54
2022/05/16 09:05:04;;;;;;;4.22;1.30;;;;;;;;;;5048789;28;20035;-53
2022/05/16 09:07:34;;;;;;;3.42;1.25;;;;;;;;;;5042217;28;20029;-54
2022/05/16 09:10:20;;;;;;;4.32;1.00;;;;;;;;;;5052621;28;20037;-54
2022/05/16 09:12:59;;;;;;;3.80;1.20;;;;;;;;;;5046145;28;20155;-51
2022/05/16 09:15:30;;;;;;;2.13;1.00;;;;;;;;;;5046602;28;20121;-55
2022/05/16 09:18:02;;;;;;;4.07;1.10;;;;;;;;;;5043236;28;20029;-55
2022/05/16 09:20:31;;;;;;;2.95;1.20;;;;;;;;;;5032956;28;20657;-55
2022/05/16 09:23:17;;;;;;;5.78;1.50;;;;;;;;;;5045005;28;20025;-55
2022/05/16 09:26:02;;;;;;;4.55;1.33;;;;;;;;;;5040297;28;20036;-53
2022/05/16 09:28:34;;;;;;;3.95;1.38;;;;;;;;;;5042379;28;20565;-54
2022/05/16 09:31:09;;;;;;;2.90;1.13;;;;;;;;;;5040738;28;20108;-54
2022/05/16 09:33:37;;;;;;;2.88;1.25;;;;;;;;;;5040134;28;20022;-56
2022/05/16 09:36:04;;;;;;;3.70;1.20;;;;;;;;;;5047589;28;20029;-55
2022/05/16 09:38:31;;;;;;;4.60;1.35;;;;;;;;;;5033557;28;20032;-53
2022/05/16 09:41:00;;;;;;;3.00;1.10;;;;;;;;;;5038202;28;20025;-54
2022/05/16 09:43:28;;;;;;;2.45;0.98;;;;;;;;;;5039561;28;20063;-55
2022/05/16 09:45:59;;;;;;;2.97;1.20;;;;;;;;;;5051321;28;20028;-55
2022/05/16 09:48:25;;;;;;;2.38;1.02;;;;;;;;;;5048744;28;20472;-55
2022/05/16 09:51:11;;;;;;;2.92;1.02;;;;;;;;;;5040348;28;20051;-55
2022/05/16 09:53:42;;;;;;;2.88;1.05;;;;;;;;;;5042722;28;20501;-53
2022/05/16 09:56:18;;;;;;;2.92;1.10;;;;;;;;;;5035856;28;20025;-53
2022/05/16 09:58:52;;;;;;;6.20;1.15;;;;;;;;;;5037886;28;20021;-55
2022/05/16 10:01:31;;;;;;;3.22;1.02;;;;;;;;;;5038185;28;20033;-54
2022/05/16 10:04:08;;;;;;;1.98;1.08;;;;;;;;;;5039502;28;20372;-56
2022/05/16 10:06:36;;;;;;;4.57;0.63;;;;;;;;;;5037368;28;20055;-53
2022/05/16 10:09:05;;;;;;;2.38;0.63;;;;;;;;;;5046790;28;20041;-54
2022/05/16 10:11:32;;;;;;;1.88;1.00;;;;;;;;;;5043458;28;20417;-54
2022/05/16 10:13:58;;;;;;;2.55;0.90;;;;;;;;;;5042351;28;20452;-55
2022/05/16 10:16:26;;;;;;;3.45;0.98;;;;;;;;;;5040228;28;20708;-54
2022/05/16 10:18:54;;;;;;;5.47;1.00;;;;;;;;;;5047797;28;20061;-54
2022/05/16 10:21:29;;;;;;;2.83;1.30;;;;;;;;;;5044335;28;20788;-53
2022/05/16 10:23:56;;;;;;;1.42;0.80;;;;;;;;;;5040796;28;20046;-55
2022/05/16 10:26:23;;;;;;;5.18;0.95;;;;;;;;;;5041944;28;20701;-53
2022/05/16 10:28:52;;;;;;;4.40;1.08;;;;;;;;;;5045199;28;20044;-55
2022/05/16 10:34:12;;;;;;;1.67;1.17;;;;;;;;;;5035578;28;20032;-54
2022/05/16 10:36:38;;;;;;;4.30;1.13;;;;;;;;;;5044038;28;20021;-53
2022/05/16 10:39:06;;;;;;;2.38;0.88;;;;;;;;;;5045228;28;20033;-55
2022/05/16 10:41:43;;;;;;;5.25;1.40;;;;;;;;;;5044983;28;20033;-55
2022/05/16 10:44:29;;;;;;;2.22;1.35;;;;;;;;;;5042437;28;20507;-52
2022/05/16 10:47:16;;;;;;;3.03;1.38;;;;;;;;;;5046916;28;20108;-53
2022/05/16 10:49:49;;;;;;;1.92;0.68;;;;;;;;;;5042915;28;20033;-54
2022/05/16 10:52:29;;;;;;;3.95;0.88;;;;;;;;;;5044033;28;20046;-53
2022/05/16 10:54:55;;;;;;;2.83;0.73;;;;;;;;;;5047292;28;20488;-56
2022/05/16 10:57:40;;;;;;;2.65;0.68;;;;;;;;;;5047500;28;20033;-53
2022/05/16 11:00:10;;;;;;;2.03;0.80;;;;;;;;;;5046837;28;20036;-54
2022/05/16 11:02:42;;;;;;;2.38;1.00;;;;;;;;;;5046702;28;20041;-54
2022/05/16 11:05:27;;;;;;;3.00;1.05;;;;;;;;;;5044910;28;20025;-54
2022/05/16 11:08:11;;;;;;;2.45;0.98;;;;;;;;;;5041389;28;20029;-54
2022/05/16 11:10:41;;;;;;;4.13;0.90;;;;;;;;;;5042520;28;20028;-54
2022/05/16 11:13:13;;;;;;;1.38;0.80;;;;;;;;;;5045973;28;20094;-54
2022/05/16 11:15:59;;;;;;;4.15;1.15;;;;;;;;;;5038210;28;20029;-56
2022/05/16 11:18:31;;;;;;;10.88;0.88;;;;;;;;;;5043674;28;20036;-56
2022/05/16 11:21:12;;;;;;;4.45;0.73;;;;;;;;;;5044963;28;20029;-56
2022/05/16 11:23:57;;;;;;;2.25;0.90;;;;;;;;;;5039192;28;20400;-56
2022/05/16 11:26:28;;;;;;;2.92;0.80;;;;;;;;;;5039633;28;20028;-56
2022/05/16 11:29:18;;;;;;;1.35;0.50;;;;;;;;;;5037618;28;20033;-55
2022/05/16 11:31:52;;;;;;;2.67;0.80;;;;;;;;;;5032763;28;20022;-56
2022/05/16 11:34:22;;;;;;;1.52;1.00;;;;;;;;;;5038045;28;20025;-55
2022/05/16 11:36:51;;;;;;;2.55;0.90;;;;;;;;;;5030600;28;20147;-55
2022/05/16 11:39:17;;;;;;;3.13;0.95;;;;;;;;;;5041757;28;20503;-57
2022/05/16 11:41:55;;;;;;;2.90;0.80;;;;;;;;;;5044173;28;20029;-55
2022/05/16 11:44:31;;;;;;;5.95;1.15;;;;;;;;;;5038386;28;20025;-56
2022/05/16 11:46:57;;;;;;;2.00;1.00;;;;;;;;;;5052925;28;20025;-52
2022/05/16 11:49:41;;;;;;;1.85;0.77;;;;;;;;;;5038213;28;20029;-56
2022/05/16 11:52:16;;;;;;;2.33;0.70;;;;;;;;;;5050165;28;20056;-55
2022/05/16 11:54:45;;;;;;;1.40;0.55;;;;;;;;;;5040476;28;20116;-56
2022/05/16 12:02:51;;;;;;;2.28;0.80;;;;;;;;;;5040494;28;20040;-55
2022/05/16 12:05:25;;;;;;;3.75;0.70;;;;;;;;;;5045370;28;20036;-56
2022/05/16 12:08:01;;;;;;;1.77;0.70;;;;;;;;;;5048643;28;20067;-56
2022/05/16 12:10:29;;;;;;;1.17;0.50;;;;;;;;;;5042210;28;20480;-54
2022/05/16 12:13:16;;;;;;;1.65;0.50;;;;;;;;;;5043780;28;20060;-51
2022/05/16 12:15:42;;;;;;;1.92;0.77;;;;;;;;;;5037596;28;20040;-55
2022/05/16 12:18:28;;;;;;;2.72;0.50;;;;;;;;;;5037010;28;20495;-56
2022/05/16 12:21:09;;;;;;;2.90;0.75;;;;;;;;;;5042222;28;20388;-56
2022/05/16 12:23:47;;;;;;;1.23;0.60;;;;;;;;;;5038967;28;20037;-55
2022/05/16 12:26:15;;;;;;;2.90;0.90;;;;;;;;;;5037975;28;20029;-54
2022/05/16 12:29:01;;;;;;;1.90;0.52;;;;;;;;;;5042503;28;20037;-56
2022/05/16 12:31:40;;;;;;;1.38;0.50;;;;;;;;;;5040349;28;20094;-55
2022/05/16 12:34:06;;;;;;;1.02;0.50;;;;;;;;;;5046094;28;20029;-56
2022/05/16 12:36:34;;;;;;;1.33;0.57;;;;;;;;;;5047331;28;20029;-56
2022/05/16 12:39:04;;;;;;;1.20;0.50;;;;;;;;;;5045867;28;20025;-55
2022/05/16 12:41:51;;;;;;;3.40;0.85;;;;;;;;;;5039828;28;20048;-55
2022/05/16 12:44:26;;;;;;;1.45;0.70;;;;;;;;;;5043322;28;20488;-52
2022/05/16 12:47:11;;;;;;;2.42;0.70;;;;;;;;;;5051719;28;20485;-55
2022/05/16 12:50:02;;;;;;;2.28;0.80;;;;;;;;;;5044576;28;20111;-56
2022/05/16 12:52:47;;;;;;;6.93;0.80;;;;;;;;;;5038896;28;20449;-56
2022/05/16 12:55:25;;;;;;;1.50;0.57;;;;;;;;;;5039138;28;20025;-53
2022/05/16 12:58:06;;;;;;;3.83;0.80;;;;;;;;;;5049693;28;20074;-50
2022/05/16 13:00:37;;;;;;;4.97;0.90;;;;;;;;;;5043895;28;20086;-57
2022/05/16 13:03:12;;;;;;;2.28;0.82;;;;;;;;;;5045101;28;20446;-54
2022/05/16 13:05:45;;;;;;;2.05;0.60;;;;;;;;;;5035182;28;20044;-56
2022/05/16 13:08:20;;;;;;;3.63;0.60;;;;;;;;;;5039462;28;20057;-53
2022/05/16 13:10:59;;;;;;;2.65;0.60;;;;;;;;;;5039810;28;20503;-56
2022/05/16 13:13:44;;;;;;;5.32;1.15;;;;;;;;;;5049291;28;20021;-54
2022/05/16 13:16:26;;;;;;;2.90;0.70;;;;;;;;;;5047909;28;20029;-53
2022/05/16 13:18:58;;;;;;;3.35;1.00;;;;;;;;;;5042223;28;20034;-53
2022/05/16 13:21:32;;;;;;;1.00;0.50;;;;;;;;;;5052375;28;20021;-55
2022/05/16 13:23:58;;;;;;;1.88;0.60;;;;;;;;;;5044517;28;20500;-55
2022/05/16 13:29:23;;;;;;;3.70;0.98;;;;;;;;;;5040707;28;20175;-55
2022/05/16 13:31:52;;;;;;;2.75;0.80;;;;;;;;;;5032683;28;20061;-52
2022/05/16 13:34:31;;;;;;;2.58;0.77;;;;;;;;;;5049068;28;20033;-53
2022/05/16 13:36:58;;;;;;;4.30;0.80;;;;;;;;;;5044814;28;20029;-52
2022/05/16 13:39:24;;;;;;;2.10;0.93;;;;;;;;;;5042829;28;20025;-53
2022/05/16 13:41:58;;;;;;;2.80;0.93;;;;;;;;;;5047764;28;20029;-52
2022/05/16 13:44:25;;;;;;;1.42;0.77;;;;;;;;;;5048818;28;20024;-53
2022/05/16 13:46:54;;;;;;;1.85;0.80;;;;;;;;;;5045839;28;20468;-54
2022/05/16 13:49:20;;;;;;;2.47;0.75;;;;;;;;;;5045285;28;20029;-52
2022/05/16 13:51:50;;;;;;;1.60;0.63;;;;;;;;;;5041558;28;20037;-54
2022/05/16 13:54:22;;;;;;;2.72;0.70;;;;;;;;;;5040809;28;20499;-54
2022/05/16 13:56:48;;;;;;;1.77;0.50;;;;;;;;;;5045046;28;20033;-54
2022/05/16 13:59:14;;;;;;;3.05;0.82;;;;;;;;;;5049957;28;20025;-54
2022/05/16 14:01:49;;;;;;;2.88;0.43;;;;;;;;;;5040387;28;20029;-54
2022/05/16 14:04:16;;;;;;;2.45;0.47;;;;;;;;;;5051543;28;20040;-53
2022/05/16 14:06:46;;;;;;;2.20;0.57;;;;;;;;;;5046791;28;20028;-54
2022/05/16 14:09:19;;;;;;;1.67;0.73;;;;;;;;;;5046471;28;20114;-54
2022/05/16 14:11:46;;;;;;;1.92;0.60;;;;;;;;;;5038632;28;20047;-54
2022/05/16 14:14:12;;;;;;;1.23;0.52;;;;;;;;;;5043401;28;20029;-52
2022/05/16 14:16:41;;;;;;;7.55;0.65;;;;;;;;;;5034171;28;21123;-55
2022/05/16 14:19:12;;;;;;;2.47;0.68;;;;;;;;;;5037619;28;20025;-54
2022/05/16 14:21:47;;;;;;;1.85;0.60;;;;;;;;;;5042155;28;20032;-54
2022/05/16 14:24:15;;;;;;;1.67;0.60;;;;;;;;;;5041973;28;20493;-54
2022/05/16 14:26:41;;;;;;;1.17;0.52;;;;;;;;;;5045285;28;20032;-53
2022/05/16 14:29:19;;;;;;;5.93;0.90;;;;;;;;;;5041602;28;20029;-53
2022/05/16 14:31:47;;;;;;;1.08;0.43;;;;;;;;;;5044454;28;20029;-53
2022/05/16 14:34:31;;;;;;;2.08;0.65;;;;;;;;;;5044573;28;20485;-53
2022/05/16 14:37:11;;;;;;;1.63;0.93;;;;;;;;;;5041170;28;20037;-52
2022/05/16 14:39:45;;;;;;;3.60;0.60;;;;;;;;;;5050695;28;20067;-52
2022/05/16 14:42:13;;;;;;;3.60;0.75;;;;;;;;;;5044526;28;20044;-54
2022/05/16 14:44:42;;;;;;;3.90;0.85;;;;;;;;;;5038390;28;20491;-54
2022/05/16 14:47:23;;;;;;;2.78;0.85;;;;;;;;;;5039606;28;20033;-54
2022/05/16 14:49:49;;;;;;;3.30;0.60;;;;;;;;;;5045624;28;20088;-55
2022/05/16 14:52:22;;;;;;;3.63;0.80;;;;;;;;;;5042832;28;20163;-56
2022/05/16 14:54:50;;;;;;;1.27;0.70;;;;;;;;;;5031698;28;20033;-54
2022/05/16 14:57:16;;;;;;;1.95;0.65;;;;;;;;;;5027889;28;21834;-56
2022/05/16 14:59:42;;;;;;;1.98;0.75;;;;;;;;;;5027228;28;20029;-55
2022/05/16 15:04:54;;;;;;;2.05;0.80;;;;;;;;;;5025092;28;20048;-55
2022/05/16 15:07:20;;;;;;;3.50;1.00;;;;;;;;;;5033930;28;20833;-54
2022/05/16 15:09:46;;;;;;;2.13;0.80;;;;;;;;;;5032417;28;20033;-50
2022/05/16 15:12:13;;;;;;;4.45;1.15;;;;;;;;;;5040922;28;20025;-53
2022/05/16 15:14:43;;;;;;;1.92;1.08;;;;;;;;;;5042666;28;20036;-54
2022/05/16 15:17:09;;;;;;;3.70;1.00;;;;;;;;;;5036643;28;20992;-55
2022/05/16 15:19:36;;;;;;;3.90;1.08;;;;;;;;;;5022038;28;20033;-55
2022/05/16 15:22:04;;;;;;;2.42;0.80;;;;;;;;;;5016328;28;20064;-54
2022/05/16 15:24:33;;;;;;;2.65;1.10;;;;;;;;;;5030386;28;20419;-55
2022/05/16 15:26:59;;;;;;;2.72;1.10;;;;;;;;;;5048217;28;20097;-53
2022/05/16 15:29:25;;;;;;;2.35;0.93;;;;;;;;;;5050023;28;20021;-54
2022/05/16 15:31:51;;;;;;;3.75;1.00;;;;;;;;;;5038599;28;20047;-55
2022/05/16 15:34:17;;;;;;;2.80;0.95;;;;;;;;;;5041252;28;20018;-56
2022/05/16 15:36:43;;;;;;;2.50;0.88;;;;;;;;;;5043164;28;20039;-54